Flight Track Log - Related Links

Times and Time Zones

All times are in EDT time to prevent confusion due to time zone crossing. See the AAL2320 flight status page for this flight to view local times or setup timezone preferences in your user account.

Time Position Orientation Groundspeed Altitude Reporting Facility
EDT Latitude Longitude Course Direction KTS MPH feet Rate Location/Type
Wed 06:50:19 AM 32.8833 -97.0333 357° North 215 247 1,100  Level Dallas / Fort Worth TRACON
Wed 06:51:19 AM 32.8333 -97.0167 164° South 207 238 3,100 2,158 Climbing Dallas / Fort Worth TRACON
Wed 06:52:00 AM 32.8377 -96.8025 10° North  Level FlightAware Approximate
Wed 06:52:13 AM 32.7833 -96.9667 140° Southeast 237 273 5,200  Level Dallas / Fort Worth TRACON
Wed 06:53:00 AM 32.9517 -96.8000 North  Level FlightAware Approximate
Wed 06:53:19 AM 32.8333 -96.9167 40° Northeast 245 282 7,800  Level Dallas / Fort Worth TRACON
Wed 06:54:00 AM 33.0659 -96.8000 North  Level FlightAware Approximate
Wed 06:55:00 AM 33.1798 -96.8081 357° North  Level FlightAware Approximate
Wed 06:55:46 AM 33.0306 -96.8931 North 302 348 12,100  Level Fort Worth Center
Wed 06:56:46 AM 33.1203 -96.8803 North 341 392 14,500 2,350 Climbing Fort Worth Center
Wed 06:57:46 AM 33.2331 -96.8597 North 368 423 16,800 2,000 Climbing Fort Worth Center
Wed 06:58:46 AM 33.3311 -96.8442 North 380 437 18,500 1,950 Climbing Fort Worth Center
Wed 06:59:46 AM 33.4478 -96.8208 North 392 451 20,700 1,850 Climbing Fort Worth Center
Wed 07:00:46 AM 33.5414 -96.7681 25° Northeast 392 451 22,200 1,550 Climbing Fort Worth Center
Wed 07:01:46 AM 33.6539 -96.6947 28° Northeast 407 468 23,800 1,500 Climbing Fort Worth Center
Wed 07:02:46 AM 33.7619 -96.6264 28° Northeast 417 480 25,200 1,400 Climbing Fort Worth Center
Wed 07:03:46 AM 33.8658 -96.5556 30° Northeast 422 486 26,600 1,350 Climbing Fort Worth Center
Wed 07:04:46 AM 33.9758 -96.4867 27° Northeast 432 497 27,900 1,350 Climbing Fort Worth Center
Wed 07:05:46 AM 34.0839 -96.4106 30° Northeast 432 497 29,300 1,250 Climbing Fort Worth Center
Wed 07:06:46 AM 34.1833 -96.3314 33° Northeast 427 491 30,400 1,150 Climbing Fort Worth Center
Wed 07:07:46 AM 34.2847 -96.2472 34° Northeast 432 497 31,600 1,150 Climbing Fort Worth Center
Wed 07:08:46 AM 34.3861 -96.1628 34° Northeast 437 503 32,700 700 Climbing Fort Worth Center
Wed 07:09:46 AM 34.4897 -96.0781 34° Northeast 437 503 33,000 150 Climbing Fort Worth Center
Wed 07:10:46 AM 34.5889 -95.9983 33° Northeast 437 503 33,000  Level Fort Worth Center
Wed 07:11:46 AM 34.6922 -95.9133 34° Northeast 437 503 33,000  Level Fort Worth Center
Wed 07:12:46 AM 34.7892 -95.8283 36° Northeast 437 503 33,000  Level Fort Worth Center
Wed 07:13:46 AM 34.8903 -95.7403 36° Northeast 437 503 33,000  Level Fort Worth Center
Wed 07:15:31 AM 35.0600 -95.5836 37° Northeast 441 507 33,000  Level Kansas City Center
Wed 07:16:32 AM 35.1575 -95.4928 37° Northeast 440 506 33,000  Level Kansas City Center
Wed 07:17:32 AM 35.2547 -95.4008 38° Northeast 441 507 33,000  Level Kansas City Center
Wed 07:18:14 AM 35.3164 -95.3444 37° Northeast 442 509 33,000  Level Memphis Center
Wed 07:19:14 AM 35.4139 -95.2533 37° Northeast 442 509 33,000  Level Memphis Center
Wed 07:20:14 AM 35.5094 -95.1594 39° Northeast 437 503 33,000  Level Memphis Center
Wed 07:21:14 AM 35.6067 -95.0681 37° Northeast 437 503 33,000  Level Memphis Center
Wed 07:22:14 AM 35.7000 -94.9739 39° Northeast 437 503 33,000  Level Memphis Center
Wed 07:23:14 AM 35.7972 -94.8819 37° Northeast 437 503 33,000  Level Memphis Center
Wed 07:24:14 AM 35.8922 -94.7872 39° Northeast 437 503 33,000  Level Memphis Center
Wed 07:25:14 AM 35.9894 -94.6950 37° Northeast 437 503 33,000  Level Memphis Center
Wed 07:26:14 AM 36.0844 -94.6025 38° Northeast 437 503 33,000  Level Memphis Center
Wed 07:27:39 AM 36.2333 -94.4564 38° Northeast 439 505 33,000  Level Kansas City Center
Wed 07:28:40 AM 36.3278 -94.3633 38° Northeast 437 503 33,000  Level Kansas City Center
Wed 07:29:41 AM 36.4228 -94.2700 38° Northeast 436 502 33,000  Level Kansas City Center
Wed 07:30:42 AM 36.5186 -94.1753 38° Northeast 439 505 33,000  Level Kansas City Center
Wed 07:31:43 AM 36.6150 -94.0797 38° Northeast 441 507 33,000  Level Kansas City Center
Wed 07:32:43 AM 36.7106 -93.9842 39° Northeast 440 506 33,000  Level Kansas City Center
Wed 07:33:44 AM 36.8072 -93.8894 38° Northeast 442 509 33,000  Level Kansas City Center
Wed 07:34:45 AM 36.9019 -93.7925 39° Northeast 441 507 33,000  Level Kansas City Center
Wed 07:35:46 AM 37.0006 -93.6942 39° Northeast 443 510 33,000  Level Kansas City Center
Wed 07:36:47 AM 37.0972 -93.5989 38° Northeast 443 510 33,000  Level Kansas City Center
Wed 07:37:48 AM 37.1922 -93.5011 39° Northeast 441 507 33,000  Level Kansas City Center
Wed 07:38:48 AM 37.2878 -93.4042 39° Northeast 441 507 33,000  Level Kansas City Center
Wed 07:39:49 AM 37.3842 -93.3075 39° Northeast 441 507 33,000  Level Kansas City Center
Wed 07:40:50 AM 37.4836 -93.2169 36° Northeast 440 506 33,000  Level Kansas City Center
Wed 07:41:51 AM 37.5833 -93.1261 36° Northeast 440 506 33,000  Level Kansas City Center
Wed 07:42:52 AM 37.6839 -93.0314 37° Northeast 445 512 33,000  Level Kansas City Center
Wed 07:43:53 AM 37.7833 -92.9386 36° Northeast 443 510 33,000  Level Kansas City Center
Wed 07:44:54 AM 37.8847 -92.8442 36° Northeast 446 513 33,000  Level Kansas City Center
Wed 07:45:55 AM 37.9881 -92.7467 37° Northeast 447 514 33,000  Level Kansas City Center
Wed 07:46:56 AM 38.0878 -92.6517 37° Northeast 447 514 33,000  Level Kansas City Center
Wed 07:47:57 AM 38.1878 -92.5592 36° Northeast 447 514 33,000  Level Kansas City Center
Wed 07:48:58 AM 38.2889 -92.4656 36° Northeast 442 509 33,000  Level Kansas City Center
Wed 07:49:59 AM 38.3883 -92.3686 37° Northeast 444 511 33,000  Level Kansas City Center
Wed 07:50:59 AM 38.4864 -92.2742 37° Northeast 441 507 33,000  Level Kansas City Center
Wed 07:52:00 AM 38.5850 -92.1803 37° Northeast 440 506 33,000  Level Kansas City Center
Wed 07:53:01 AM 38.6842 -92.0839 37° Northeast 443 510 33,000  Level Kansas City Center
Wed 07:54:02 AM 38.8022 -91.9700 37° Northeast 442 509 33,000  Level Kansas City Center
Wed 07:55:03 AM 38.9011 -91.8753 37° Northeast 442 509 33,000  Level Kansas City Center
Wed 07:56:04 AM 39.0006 -91.7781 37° Northeast 446 513 33,000  Level Kansas City Center
Wed 07:57:05 AM 39.0950 -91.6867 37° Northeast 449 517 33,000  Level Kansas City Center
Wed 07:58:06 AM 39.1953 -91.5892 37° Northeast 451 519 33,000  Level Kansas City Center
Wed 07:59:07 AM 39.2986 -91.4883 37° Northeast 459 528 33,000  Level Kansas City Center
Wed 08:00:08 AM 39.4019 -91.3861 37° Northeast 465 535 33,000  Level Kansas City Center
Wed 08:01:09 AM 39.5036 -91.2858 37° Northeast 462 532 33,000  Level Kansas City Center
Wed 08:02:10 AM 39.6064 -91.1839 37° Northeast 463 533 33,000  Level Kansas City Center
Wed 08:03:11 AM 39.7083 -91.0825 37° Northeast 462 532 33,000  Level Kansas City Center
Wed 08:04:12 AM 39.8136 -90.9747 38° Northeast 458 527 33,000  Level Kansas City Center
Wed 08:05:13 AM 39.9083 -90.8783 38° Northeast 458 527 33,000  Level Kansas City Center
Wed 08:06:14 AM 40.0119 -90.7781 37° Northeast 460 529 33,000  Level Kansas City Center
Wed 08:07:15 AM 40.1108 -90.6750 39° Northeast 457 526 33,000  Level Kansas City Center
Wed 08:08:16 AM 40.2339 -90.5508 38° Northeast 462 532 33,000  Level Kansas City Center
Wed 08:09:17 AM 40.3344 -90.4481 38° Northeast 461 531 33,000  Level Kansas City Center
Wed 08:10:18 AM 40.4353 -90.3439 38° Northeast 459 528 33,000  Level Kansas City Center
Wed 08:11:19 AM 40.5356 -90.2417 38° Northeast 457 526 33,000 -98 Level Kansas City Center
Wed 08:12:20 AM 40.6322 -90.1417 38° Northeast 458 527 32,800 -390 Descending Kansas City Center
Wed 08:13:22 AM 40.7317 -90.0389 38° Northeast 458 527 32,200 -976 Descending Kansas City Center
Wed 08:14:23 AM 40.8433 -89.9236 38° Northeast 464 534 30,800 -1,726 Descending Kansas City Center
Wed 08:15:48 AM 40.9897 -89.7689 39° Northeast 463 533 28,000 -2,000 Descending Chicago Center
Wed 08:16:50 AM 41.0861 -89.6669 39° Northeast 457 526 25,900 -1,984 Descending Chicago Center
Wed 08:17:52 AM 41.1739 -89.5547 44° Northeast 445 512 23,900 -2,146 Descending Chicago Center
Wed 08:18:53 AM 41.2292 -89.4200 61° Northeast 421 484 21,500 -2,341 Descending Chicago Center
Wed 08:19:55 AM 41.2831 -89.2847 62° Northeast 413 475 19,100 -1,887 Descending Chicago Center
Wed 08:20:57 AM 41.3314 -89.1592 63° Northeast 389 448 17,600 -1,902 Descending Chicago Center
Wed 08:21:58 AM 41.3908 -89.0128 62° Northeast 378 435 15,200 -2,195 Descending Chicago Center
Wed 08:23:00 AM 41.4378 -88.8956 62° Northeast 360 414 13,100 -1,742 Descending Chicago Center
Wed 08:24:02 AM 41.4836 -88.7808 62° Northeast 353 406 11,600 -1,024 Descending Chicago Center
Wed 08:25:03 AM 41.5283 -88.6667 62° Northeast 348 400 11,000 -244 Descending Chicago Center
Wed 08:26:05 AM 41.5750 -88.5464 63° Northeast 361 415 11,100  Climbing Chicago Center
Wed 08:27:07 AM 41.6278 -88.4317 58° Northeast 361 415 11,000 -49 Descending Chicago Center
Wed 08:28:08 AM 41.6908 -88.3283 51° Northeast 356 410 11,000 -488 Level Chicago Center
Wed 08:29:10 AM 41.7547 -88.2167 52° Northeast 310 357 10,000 -1,161 Descending Chicago Center
Wed 08:30:12 AM 41.8036 -88.1317 52° Northeast 291 335 8,600 -1,403 Descending Chicago Center
Wed 08:31:14 AM 41.8519 -88.0486 52° Northeast 284 327 7,100 -780 Descending Chicago Center
Wed 08:32:15 AM 41.8831 -87.9567 66° East 282 325 7,000 -49 Descending Chicago Center
Wed 08:33:17 AM 41.8842 -87.8528 89° East 280 322 7,000 -581 Level Chicago Center
Wed 08:34:19 AM 41.8842 -87.7508 90° East 276 318 5,800 -968 Descending Chicago Center
Wed 08:35:21 AM 41.8844 -87.6522 90° East 272 313 5,000 -390 Descending Chicago Center
Wed 08:36:22 AM 41.8839 -87.5372 90° East 264 304 5,000  Level Chicago Center
Wed 08:37:24 AM 41.8836 -87.4444 90° East 258 297 5,000  Level Chicago Center
Wed 08:38:26 AM 41.9103 -87.3806 61° Northeast 241 277 5,000  Level Chicago Center
Wed 08:39:28 AM 41.9606 -87.4181 331° Northwest 228 262 5,000  Level Chicago Center
Wed 08:40:30 AM 41.9700 -87.5033 279° West 233 268 5,000 -48 Level Chicago Center
Wed 08:41:32 AM 41.9692 -87.5872 269° West 231 266 4,900 -585 Descending Chicago Center
Wed 08:42:33 AM 41.9692 -87.6875 270° West 229 264 3,800 -1,082 Descending Chicago Center

Login

Don't have an account? Register now (free) for customized features, flight alerts, and more!